Time;durP1;ratioP1;P1;durP2;ratioP2;P2;SDS_P1;SDS_P2;PMS_P1;PMS_P2;Temp;Humidity;BMP_temperature;BMP_pressure;BME280_temperature;BME280_humidity;BME280_pressure;Samples;Min_cycle;Max_cycle;Signal;HPM_P1;HPM_P2
2023/03/13 00:01:58;;;;;;;0.30;0.30;;;;;;;14.15;70.40;100231.69;4970390;28;20122;-61
2023/03/13 00:04:23;;;;;;;0.30;0.30;;;;;;;15.32;66.58;100213.59;4971106;28;20117;-61
2023/03/13 00:06:49;;;;;;;0.17;0.17;;;;;;;14.99;67.60;100197.91;4971344;28;20518;-60
2023/03/13 00:09:15;;;;;;;0.30;0.30;;;;;;;15.06;67.30;100205.72;4970767;28;20039;-61
2023/03/13 00:11:42;;;;;;;0.30;0.30;;;;;;;15.21;67.30;100208.47;4970856;28;20039;-61
2023/03/13 00:14:08;;;;;;;0.35;0.35;;;;;;;14.66;70.18;100199.19;4970988;28;20039;-59
2023/03/13 00:16:36;;;;;;;0.20;0.20;;;;;;;14.15;71.80;100197.41;4970258;28;20109;-62
2023/03/13 00:19:01;;;;;;;0.28;0.28;;;;;;;15.43;67.74;100182.75;4970731;28;20408;-60
2023/03/13 00:21:28;;;;;;;0.30;0.30;;;;;;;15.31;66.88;100176.75;4970611;28;20090;-61
2023/03/13 00:23:54;;;;;;;0.40;0.40;;;;;;;14.49;70.48;100171.56;4970819;28;20663;-60
2023/03/13 00:26:25;;;;;;;0.30;0.30;;;;;;;15.07;67.34;100153.25;4970789;28;20034;-61
2023/03/13 00:28:51;;;;;;;0.20;0.20;;;;;;;15.26;67.14;100144.31;4970490;28;20039;-60
2023/03/13 00:31:23;;;;;;;0.25;0.25;;;;;;;15.29;67.20;100165.41;4971003;28;20029;-62
2023/03/13 00:33:54;;;;;;;0.30;0.30;;;;;;;15.06;67.48;100144.31;4962635;28;21094;-61
2023/03/13 00:36:22;;;;;;;0.22;0.22;;;;;;;15.69;65.46;100141.00;4963656;28;20118;-60
2023/03/13 00:38:49;;;;;;;0.35;0.35;;;;;;;14.64;69.00;100131.03;4961468;28;20066;-61
2023/03/13 00:41:17;;;;;;;0.43;0.43;;;;;;;15.23;67.38;100125.91;4959462;28;20105;-62
2023/03/13 00:43:43;;;;;;;0.38;0.38;;;;;;;15.27;66.91;100115.34;4969741;28;20030;-59
2023/03/13 00:46:10;;;;;;;0.40;0.40;;;;;;;15.24;67.21;100107.75;4960811;28;20034;-62
2023/03/13 00:48:35;;;;;;;0.30;0.30;;;;;;;15.67;64.94;100097.13;4966404;28;20035;-59
2023/03/13 00:51:02;;;;;;;0.22;0.22;;;;;;;15.42;66.10;100090.97;4966848;28;20077;-62
2023/03/13 00:53:28;;;;;;;0.50;0.50;;;;;;;15.15;66.75;100088.56;4959120;28;20043;-60
2023/03/13 00:55:57;;;;;;;0.30;0.30;;;;;;;15.74;64.76;100086.78;4983654;28;20039;-60
2023/03/13 00:58:24;;;;;;;0.28;0.28;;;;;;;15.64;65.17;100080.63;4993922;28;20050;-59
2023/03/13 01:00:50;;;;;;;0.30;0.30;;;;;;;15.79;64.62;100061.56;4983511;28;20045;-60
2023/03/13 01:03:16;;;;;;;0.40;0.40;;;;;;;15.45;65.59;100068.78;4988080;28;20400;-60
2023/03/13 01:05:41;;;;;;;0.30;0.30;;;;;;;15.28;67.10;100055.50;4993928;28;20364;-61
2023/03/13 01:08:07;;;;;;;0.30;0.30;;;;;;;15.75;65.12;100042.38;5000212;28;20540;-59
2023/03/13 01:10:32;;;;;;;0.30;0.30;;;;;;;14.78;68.36;100042.88;4994124;28;20032;-62
2023/03/13 01:12:58;;;;;;;0.30;0.30;;;;;;;15.16;67.69;100019.81;4981723;28;20528;-60
2023/03/13 01:15:23;;;;;;;0.50;0.50;;;;;;;15.39;66.14;100027.31;4974688;28;20053;-59
2023/03/13 01:17:48;;;;;;;0.40;0.40;;;;;;;15.54;65.51;100024.59;4974489;28;20098;-60
2023/03/13 01:20:14;;;;;;;0.30;0.30;;;;;;;15.20;68.02;100015.47;4974427;28;20422;-60
2023/03/13 01:22:39;;;;;;;0.40;0.40;;;;;;;14.96;68.71;100009.03;4974229;28;20302;-61
2023/03/13 01:25:05;;;;;;;0.20;0.20;;;;;;;15.41;66.16;99999.97;4974405;28;20122;-62
2023/03/13 01:27:30;;;;;;;0.30;0.30;;;;;;;15.39;66.63;99994.81;4974099;28;20138;-61
2023/03/13 01:29:56;;;;;;;0.20;0.20;;;;;;;15.59;66.77;99981.22;4974115;28;20037;-61
2023/03/13 01:32:21;;;;;;;0.25;0.25;;;;;;;15.21;67.97;99979.22;4974117;28;20042;-60
2023/03/13 01:34:47;;;;;;;0.30;0.30;;;;;;;15.34;68.53;99962.38;4984522;28;20041;-60
2023/03/13 01:37:12;;;;;;;0.30;0.30;;;;;;;14.85;71.00;99964.97;4992317;28;20409;-60
2023/03/13 01:39:37;;;;;;;0.10;0.10;;;;;;;14.74;71.39;99962.56;4993231;28;20121;-59
2023/03/13 01:42:04;;;;;;;0.30;0.30;;;;;;;14.95;70.95;99956.84;4993559;28;20113;-61
2023/03/13 01:44:56;;;;;;;0.25;0.25;;;;;;;14.77;71.53;99945.78;4975852;28;20030;-60
2023/03/13 01:47:22;;;;;;;0.30;0.30;;;;;;;15.25;70.68;99942.34;4993222;28;20064;-61
2023/03/13 01:49:49;;;;;;;0.30;0.30;;;;;;;14.96;71.98;99934.09;4993399;28;20498;-62
2023/03/13 01:52:19;;;;;;;0.30;0.30;;;;;;;15.37;70.08;99915.00;4992946;28;20049;-61
2023/03/13 01:55:10;;;;;;;0.20;0.20;;;;;;;15.60;69.48;99912.44;4992631;28;20038;-60
2023/03/13 01:57:41;;;;;;;0.30;0.30;;;;;;;15.42;69.71;99898.72;4932630;29;20036;-60
2023/03/13 02:00:11;;;;;;;0.30;0.30;;;;;;;15.24;70.76;99891.22;4932726;29;20050;-61
2023/03/13 02:02:41;;;;;;;0.20;0.20;;;;;;;15.40;69.26;99887.34;4932554;29;20126;-62
2023/03/13 02:05:07;;;;;;;0.23;0.23;;;;;;;15.02;71.10;99866.44;4932656;29;20048;-61
2023/03/13 02:07:38;;;;;;;0.20;0.20;;;;;;;14.92;71.39;99862.69;4932616;29;20027;-59
2023/03/13 02:10:05;;;;;;;0.28;0.28;;;;;;;14.66;73.56;99853.03;4932627;29;20122;-60
2023/03/13 02:12:36;;;;;;;0.28;0.28;;;;;;;14.48;75.26;99847.44;4932240;29;20040;-61
2023/03/13 02:15:03;;;;;;;;;;;;;;;15.63;71.27;99836.03;4933020;29;20100;-60
2023/03/13 02:17:29;;;;;;;0.30;0.30;;;;;;;14.44;74.72;99846.38;4932276;29;19914;-61
2023/03/13 02:19:54;;;;;;;0.40;0.40;;;;;;;14.63;74.24;99814.94;4932283;29;20094;-60
2023/03/13 02:22:57;;;;;;;0.13;0.13;;;;;;;14.58;75.42;99818.50;4932926;29;20792;-61
2023/03/13 02:25:22;;;;;;;0.20;0.20;;;;;;;14.75;73.73;99820.84;4932088;29;20045;-62
2023/03/13 02:27:52;;;;;;;0.20;0.20;;;;;;;15.41;72.34;99803.13;4932547;29;20039;-60
2023/03/13 02:30:18;;;;;;;0.20;0.20;;;;;;;14.48;75.07;99794.19;4932293;29;20046;-62
2023/03/13 02:32:44;;;;;;;0.30;0.30;;;;;;;15.27;72.74;99801.34;4932130;29;20075;-61
2023/03/13 02:35:13;;;;;;;0.28;0.28;;;;;;;15.50;72.12;99797.97;4974554;28;20120;-62
2023/03/13 02:37:43;;;;;;;0.13;0.13;;;;;;;15.07;73.67;99777.13;4992112;28;20504;-60
2023/03/13 02:40:12;;;;;;;0.25;0.25;;;;;;;15.35;72.91;99774.47;4993104;28;20030;-61
2023/03/13 02:42:40;;;;;;;0.10;0.10;;;;;;;15.28;73.08;99779.41;4992717;28;20298;-64
2023/03/13 02:45:07;;;;;;;0.30;0.30;;;;;;;15.27;73.76;99772.38;4992253;28;20034;-60
2023/03/13 02:47:32;;;;;;;0.20;0.20;;;;;;;15.12;74.13;99785.19;4976209;28;20125;-60
2023/03/13 02:49:57;;;;;;;0.30;0.30;;;;;;;14.91;75.44;99766.41;4984230;28;20050;-63
2023/03/13 02:52:28;;;;;;;0.20;0.20;;;;;;;15.34;73.64;99761.22;4992502;28;20030;-61
2023/03/13 02:55:03;;;;;;;0.20;0.20;;;;;;;15.76;73.44;99739.78;4992057;28;20125;-60
2023/03/13 02:57:30;;;;;;;0.25;0.25;;;;;;;15.20;75.11;99741.31;4991915;28;20034;-62
2023/03/13 02:59:56;;;;;;;0.20;0.20;;;;;;;15.07;77.34;99728.41;4992072;28;20092;-60
2023/03/13 03:02:21;;;;;;;0.20;0.20;;;;;;;15.26;75.50;99732.88;4992172;28;20046;-63
2023/03/13 03:04:47;;;;;;;0.20;0.20;;;;;;;15.45;75.15;99730.31;4991586;28;20046;-60
2023/03/13 03:07:12;;;;;;;0.22;0.22;;;;;;;15.30;75.48;99714.16;4991850;28;20025;-60
2023/03/13 03:09:37;;;;;;;0.20;0.20;;;;;;;15.19;77.40;99718.06;4991828;28;20127;-60
2023/03/13 03:12:03;;;;;;;0.10;0.10;;;;;;;15.33;76.54;99711.69;4991656;28;20117;-60
2023/03/13 03:14:28;;;;;;;0.20;0.20;;;;;;;15.73;76.04;99713.25;4991697;28;20061;-59
2023/03/13 03:16:54;;;;;;;0.10;0.10;;;;;;;14.88;79.25;99703.91;4991902;28;20031;-61
2023/03/13 03:19:19;;;;;;;0.22;0.22;;;;;;;15.49;77.56;99701.56;4992320;28;20446;-60
2023/03/13 03:21:45;;;;;;;0.20;0.20;;;;;;;15.95;74.72;99693.78;4991699;28;20045;-62
2023/03/13 03:24:10;;;;;;;0.20;0.20;;;;;;;15.72;76.28;99703.53;4991577;28;20445;-60
2023/03/13 03:26:36;;;;;;;0.20;0.20;;;;;;;15.77;75.60;99698.03;4991590;28;20526;-62
2023/03/13 03:29:01;;;;;;;0.20;0.20;;;;;;;15.10;78.48;99700.78;4991641;28;20034;-60
2023/03/13 03:31:27;;;;;;;0.13;0.13;;;;;;;15.82;76.40;99701.50;4991800;28;20077;-61
2023/03/13 03:33:52;;;;;;;0.20;0.20;;;;;;;15.73;77.98;99699.72;4992004;28;20014;-60
2023/03/13 03:36:21;;;;;;;0.20;0.20;;;;;;;15.70;78.44;99689.47;4991502;28;20588;-61
2023/03/13 03:38:47;;;;;;;0.10;0.10;;;;;;;16.13;75.46;99693.03;4990459;28;20034;-60
2023/03/13 03:41:13;;;;;;;0.30;0.30;;;;;;;15.96;76.22;99677.25;4991180;28;20375;-60
2023/03/13 03:43:39;;;;;;;0.22;0.22;;;;;;;16.13;75.43;99687.63;4990750;28;20027;-60
2023/03/13 03:46:05;;;;;;;0.20;0.20;;;;;;;15.42;79.04;99690.28;4991512;28;20077;-60
2023/03/13 03:48:31;;;;;;;0.20;0.20;;;;;;;15.81;77.65;99682.84;4991432;28;20061;-60
2023/03/13 03:50:56;;;;;;;0.30;0.30;;;;;;;15.84;76.99;99688.47;4991353;28;20065;-61
2023/03/13 03:53:22;;;;;;;0.20;0.20;;;;;;;15.51;78.39;99686.66;4991476;28;20493;-61
2023/03/13 03:55:48;;;;;;;0.32;0.32;;;;;;;16.11;77.37;99695.25;4991062;28;20042;-60
2023/03/13 03:58:13;;;;;;;0.10;0.10;;;;;;;15.71;79.19;99686.47;4991725;28;20039;-61
2023/03/13 04:00:41;;;;;;;0.30;0.30;;;;;;;15.30;80.32;99689.81;4991415;28;20411;-61
2023/03/13 04:03:07;;;;;;;0.20;0.20;;;;;;;15.79;79.57;99683.13;4991248;28;20057;-62
2023/03/13 04:05:32;;;;;;;0.25;0.25;;;;;;;16.02;78.42;99686.94;4991058;28;20035;-61
2023/03/13 04:07:57;;;;;;;0.20;0.20;;;;;;;15.35;81.70;99687.06;4991225;28;20414;-61
2023/03/13 04:10:23;;;;;;;0.10;0.10;;;;;;;16.10;78.47;99669.22;4991431;28;20026;-62
2023/03/13 04:12:48;;;;;;;0.20;0.20;;;;;;;16.00;79.44;99678.28;4991180;28;20030;-61
2023/03/13 04:15:13;;;;;;;0.20;0.20;;;;;;;15.74;80.97;99680.47;4991372;28;20035;-62
2023/03/13 04:17:39;;;;;;;0.10;0.10;;;;;;;16.12;79.74;99675.16;4989979;28;20089;-61
2023/03/13 04:20:06;;;;;;;0.20;0.20;;;;;;;15.61;81.87;99677.63;4993299;28;20038;-61
2023/03/13 04:22:31;;;;;;;0.10;0.10;;;;;;;15.69;81.33;99668.88;4995372;28;20456;-60
2023/03/13 04:24:57;;;;;;;0.28;0.28;;;;;;;16.31;100.00;99674.09;4995279;28;20053;-61
2023/03/13 04:27:22;;;;;;;0.10;0.10;;;;;;;15.86;81.84;99666.53;4994725;28;20505;-60
2023/03/13 04:29:47;;;;;;;0.10;0.10;;;;;;;16.31;81.03;99652.41;4994897;28;20036;-61
2023/03/13 04:32:13;;;;;;;0.10;0.10;;;;;;;16.07;82.15;99648.13;4995193;28;20027;-61
2023/03/13 04:34:38;;;;;;;0.10;0.10;;;;;;;16.28;81.46;99638.63;4994581;28;20030;-61
2023/03/13 04:37:04;;;;;;;0.10;0.10;;;;;;;16.08;81.10;99631.56;4995076;28;20035;-60
2023/03/13 04:39:29;;;;;;;0.20;0.20;;;;;;;16.41;80.78;99637.94;4994619;28;20027;-60
2023/03/13 04:41:55;;;;;;;0.20;0.20;;;;;;;16.36;80.92;99640.69;4993996;28;20034;-61
2023/03/13 04:44:21;;;;;;;0.20;0.20;;;;;;;16.42;80.48;99636.81;4994874;28;20058;-61
2023/03/13 04:46:47;;;;;;;0.15;0.15;;;;;;;16.15;82.21;99639.34;4994540;28;20483;-61
2023/03/13 04:49:14;;;;;;;0.22;0.22;;;;;;;15.71;83.82;99620.66;4995191;28;20030;-61
2023/03/13 04:51:43;;;;;;;0.30;0.30;;;;;;;16.57;81.12;99612.22;4994809;28;20498;-60
2023/03/13 04:54:08;;;;;;;0.20;0.20;;;;;;;16.50;80.71;99607.16;4994414;28;20088;-61
2023/03/13 04:56:34;;;;;;;0.30;0.30;;;;;;;16.58;81.06;99605.69;4993965;28;20042;-60
2023/03/13 04:58:59;;;;;;;0.20;0.20;;;;;;;16.52;80.52;99610.41;4994614;28;20398;-61
2023/03/13 05:01:25;;;;;;;0.10;0.10;;;;;;;16.29;81.75;99605.81;4993918;28;20463;-64
2023/03/13 05:03:50;;;;;;;0.20;0.20;;;;;;;16.55;81.78;99604.38;4994035;28;20038;-62
2023/03/13 05:06:16;;;;;;;0.10;0.10;;;;;;;16.36;81.97;99600.03;4994350;28;20030;-62
2023/03/13 05:08:41;;;;;;;0.10;0.10;;;;;;;16.49;81.50;99599.34;4994093;28;20030;-61
2023/03/13 05:11:06;;;;;;;0.10;0.10;;;;;;;16.66;80.87;99592.28;4993707;28;20589;-60
2023/03/13 05:13:32;;;;;;;0.20;0.20;;;;;;;16.11;82.91;99611.22;4994174;28;20037;-61
2023/03/13 05:15:57;;;;;;;0.10;0.10;;;;;;;16.92;79.64;99594.59;4994562;28;20134;-61
2023/03/13 05:18:23;;;;;;;0.20;0.20;;;;;;;16.81;80.98;99588.50;4993533;28;20038;-60
2023/03/13 05:20:48;;;;;;;0.10;0.10;;;;;;;16.43;81.82;99605.91;4993512;28;20142;-60
2023/03/13 05:23:14;;;;;;;0.20;0.20;;;;;;;16.80;81.29;99564.38;4993863;28;20112;-59
2023/03/13 05:25:39;;;;;;;0.20;0.20;;;;;;;16.09;83.75;99589.03;4993126;28;20026;-63
2023/03/13 05:28:05;;;;;;;0.20;0.20;;;;;;;16.26;82.95;99573.88;4993959;28;20113;-61
2023/03/13 05:30:30;;;;;;;0.15;0.15;;;;;;;16.38;82.57;99589.69;4992983;28;20117;-62
2023/03/13 05:32:55;;;;;;;0.20;0.20;;;;;;;16.40;83.48;99565.81;4993476;28;20034;-60
2023/03/13 05:35:21;;;;;;;0.20;0.20;;;;;;;16.40;82.65;99569.31;4993262;28;20085;-61
2023/03/13 05:37:47;;;;;;;0.10;0.10;;;;;;;16.12;83.67;99567.56;4993351;28;20138;-62
2023/03/13 05:40:13;;;;;;;0.10;0.10;;;;;;;16.23;83.44;99595.34;4991097;28;20034;-60
2023/03/13 05:42:38;;;;;;;0.30;0.30;;;;;;;17.14;79.60;99579.25;4991572;28;20576;-60
2023/03/13 05:45:04;;;;;;;0.20;0.20;;;;;;;16.25;83.14;99577.69;4991778;28;20042;-60
2023/03/13 05:47:30;;;;;;;0.20;0.20;;;;;;;16.80;80.97;99578.78;4992230;28;20498;-62
2023/03/13 05:49:55;;;;;;;0.20;0.20;;;;;;;16.21;83.33;99587.50;4991517;28;20034;-61
2023/03/13 05:52:21;;;;;;;0.20;0.20;;;;;;;16.63;80.95;99581.19;4991994;28;20054;-62
2023/03/13 05:54:46;;;;;;;0.20;0.20;;;;;;;16.52;81.02;99572.44;4991728;28;20034;-61
2023/03/13 05:57:11;;;;;;;0.20;0.20;;;;;;;16.52;81.42;99563.47;4973302;28;20121;-60
2023/03/13 05:59:37;;;;;;;0.20;0.20;;;;;;;16.64;79.47;99571.97;4972192;28;20038;-61
2023/03/13 06:02:02;;;;;;;0.20;0.20;;;;;;;16.30;80.63;99574.91;4972482;28;20046;-60
2023/03/13 06:04:27;;;;;;;0.20;0.20;;;;;;;16.87;78.69;99572.94;4972641;28;20542;-60
2023/03/13 06:06:53;;;;;;;0.20;0.20;;;;;;;16.87;77.69;99586.50;4972968;28;20495;-62
2023/03/13 06:09:19;;;;;;;0.20;0.20;;;;;;;16.43;79.61;99566.00;4972097;28;20035;-61
2023/03/13 06:11:44;;;;;;;0.20;0.20;;;;;;;16.55;79.02;99552.84;4972170;28;20490;-63
2023/03/13 06:14:09;;;;;;;0.20;0.20;;;;;;;16.64;78.73;99564.66;4973424;28;20042;-61
2023/03/13 06:16:35;;;;;;;0.20;0.20;;;;;;;16.84;77.26;99549.13;4973367;28;20019;-61
2023/03/13 06:19:01;;;;;;;0.10;0.10;;;;;;;17.12;77.08;99529.09;4973612;28;20019;-61
2023/03/13 06:21:26;;;;;;;0.20;0.20;;;;;;;16.80;77.11;99545.41;4973249;28;20042;-61
2023/03/13 06:23:53;;;;;;;0.15;0.15;;;;;;;16.78;76.67;99534.03;4973230;28;20052;-60
2023/03/13 06:26:19;;;;;;;0.20;0.20;;;;;;;17.00;75.45;99540.41;4973000;28;20039;-61
2023/03/13 06:28:44;;;;;;;0.20;0.20;;;;;;;16.92;76.69;99535.69;4973074;28;20041;-62
2023/03/13 06:31:10;;;;;;;0.20;0.20;;;;;;;16.85;76.50;99537.97;4955133;28;20046;-61
2023/03/13 06:33:36;;;;;;;0.20;0.20;;;;;;;16.89;75.40;99524.59;4971959;28;20035;-60
2023/03/13 06:36:02;;;;;;;0.30;0.30;;;;;;;16.72;75.61;99521.66;4972504;28;20027;-63
2023/03/13 06:38:28;;;;;;;0.20;0.20;;;;;;;17.05;73.66;99534.09;4971537;28;20037;-61
2023/03/13 06:40:54;;;;;;;0.20;0.20;;;;;;;16.78;74.56;99515.03;4966386;28;20042;-61
2023/03/13 06:43:20;;;;;;;0.20;0.20;;;;;;;16.72;75.06;99514.34;4970191;28;20023;-60
2023/03/13 06:45:46;;;;;;;0.13;0.13;;;;;;;17.20;72.83;99537.31;4971111;28;20083;-61
2023/03/13 06:48:11;;;;;;;0.20;0.20;;;;;;;17.20;72.70;99512.06;4971276;28;20502;-61
2023/03/13 06:50:38;;;;;;;0.20;0.20;;;;;;;16.84;74.22;99538.28;4971711;28;20359;-61
2023/03/13 06:53:03;;;;;;;0.17;0.17;;;;;;;17.32;72.68;99534.13;4971839;28;20041;-62
2023/03/13 06:55:29;;;;;;;0.20;0.20;;;;;;;16.89;74.42;99508.31;4971237;28;20495;-61
2023/03/13 06:57:54;;;;;;;0.20;0.20;;;;;;;17.01;73.39;99512.19;4979680;28;20027;-60
2023/03/13 07:00:20;;;;;;;0.20;0.20;;;;;;;16.91;73.74;99525.13;4979908;28;20042;-60
2023/03/13 07:02:45;;;;;;;0.17;0.17;;;;;;;17.06;73.38;99514.78;4981448;28;20061;-64
2023/03/13 07:05:13;;;;;;;0.10;0.10;;;;;;;17.46;71.05;99527.59;4973142;28;20043;-61
2023/03/13 07:07:39;;;;;;;0.20;0.20;;;;;;;17.51;71.68;99515.88;4971790;28;20027;-62
2023/03/13 07:10:05;;;;;;;0.30;0.30;;;;;;;17.30;71.95;99586.00;4972228;28;20038;-61
2023/03/13 07:12:30;;;;;;;0.20;0.20;;;;;;;17.05;73.33;99504.22;4971624;28;20038;-61
2023/03/13 07:14:55;;;;;;;0.10;0.10;;;;;;;17.31;72.86;99514.31;4971456;28;20023;-61
2023/03/13 07:17:21;;;;;;;0.20;0.20;;;;;;;17.52;72.13;99531.84;4970141;28;20035;-62
2023/03/13 07:19:46;;;;;;;0.20;0.20;;;;;;;17.26;72.25;99525.25;4971648;28;20047;-62
2023/03/13 07:22:12;;;;;;;0.10;0.10;;;;;;;17.12;73.68;99512.81;4972349;28;20054;-61
2023/03/13 07:24:37;;;;;;;0.10;0.10;;;;;;;17.47;71.38;99518.31;4989507;28;20030;-61
2023/03/13 07:27:02;;;;;;;0.20;0.20;;;;;;;17.03;72.90;99523.53;4983180;28;20057;-62
2023/03/13 07:29:28;;;;;;;0.10;0.10;;;;;;;17.35;72.81;99514.53;4969877;28;20067;-62
2023/03/13 07:31:53;;;;;;;0.13;0.13;;;;;;;17.88;70.18;99529.19;4978928;28;20034;-61
2023/03/13 07:34:18;;;;;;;0.20;0.20;;;;;;;17.41;72.21;99524.19;4984973;28;20037;-61
2023/03/13 07:36:44;;;;;;;0.20;0.20;;;;;;;17.82;70.54;99513.31;4972137;28;20067;-63
2023/03/13 07:39:09;;;;;;;0.28;0.28;;;;;;;17.60;72.09;99524.09;4971557;28;20398;-60
2023/03/13 07:41:34;;;;;;;0.10;0.10;;;;;;;17.44;73.01;99527.09;4971219;28;20038;-60
2023/03/13 07:44:00;;;;;;;0.20;0.20;;;;;;;17.41;73.71;99538.53;4971952;28;20518;-62
2023/03/13 07:46:25;;;;;;;0.20;0.20;;;;;;;17.71;72.68;99533.66;4972165;28;20031;-62
2023/03/13 07:48:52;;;;;;;0.20;0.20;;;;;;;17.17;74.53;99527.09;4971740;28;20042;-61
2023/03/13 07:51:20;;;;;;;0.25;0.25;;;;;;;16.98;75.84;99544.53;4972147;28;20283;-61
2023/03/13 07:53:46;;;;;;;0.20;0.20;;;;;;;17.40;75.26;99538.84;4971654;28;20045;-60
2023/03/13 07:56:16;;;;;;;0.30;0.30;;;;;;;17.37;75.14;99543.00;4979178;28;20054;-60
2023/03/13 07:58:43;;;;;;;0.20;0.20;;;;;;;17.24;75.03;99534.81;5010864;28;20104;-61
2023/03/13 08:01:35;;;;;;;0.20;0.20;;;;;;;17.47;74.88;99542.78;5001939;28;20022;-61
2023/03/13 08:04:00;;;;;;;0.20;0.20;;;;;;;16.59;77.71;99572.84;4988460;28;20042;-61
2023/03/13 08:06:28;;;;;;;0.15;0.15;;;;;;;16.93;76.25;99555.47;4990995;28;20097;-61
2023/03/13 08:08:57;;;;;;;0.20;0.20;;;;;;;16.77;77.91;99541.34;4991034;28;20445;-61
2023/03/13 08:11:24;;;;;;;0.20;0.20;;;;;;;17.44;74.77;99529.00;4991001;28;20044;-63
2023/03/13 08:13:51;;;;;;;0.10;0.10;;;;;;;16.99;76.77;99557.00;4990864;28;20045;-61
2023/03/13 08:16:19;;;;;;;0.20;0.20;;;;;;;17.03;77.09;99533.59;4991681;28;20022;-63
2023/03/13 08:18:47;;;;;;;0.20;0.20;;;;;;;16.63;77.88;99560.31;4990834;28;20031;-63
2023/03/13 08:21:19;;;;;;;0.20;0.20;;;;;;;17.16;76.46;99579.75;4991047;28;20141;-61
2023/03/13 08:23:45;;;;;;;0.20;0.20;;;;;;;16.96;76.99;99555.69;4991013;28;20058;-60
2023/03/13 08:26:22;;;;;;;0.17;0.17;;;;;;;17.22;77.08;99561.44;4990621;28;20051;-61
2023/03/13 08:28:52;;;;;;;0.10;0.10;;;;;;;16.85;77.36;99581.38;4990689;28;20077;-61
2023/03/13 08:31:26;;;;;;;0.10;0.10;;;;;;;17.29;76.46;99543.69;4991875;28;20040;-62
2023/03/13 08:33:51;;;;;;;0.20;0.20;;;;;;;16.89;77.30;99547.13;4990555;28;20034;-59
2023/03/13 08:36:26;;;;;;;0.20;0.20;;;;;;;17.38;75.63;99517.44;4991003;28;20081;-60
2023/03/13 08:38:53;;;;;;;0.13;0.13;;;;;;;17.15;75.93;99510.28;4990910;28;20034;-60
2023/03/13 08:41:21;;;;;;;0.10;0.10;;;;;;;17.19;73.82;99514.00;4990912;28;20038;-60
2023/03/13 08:43:47;;;;;;;0.20;0.20;;;;;;;17.40;73.10;99512.50;4990727;28;20046;-60
2023/03/13 08:46:13;;;;;;;0.20;0.20;;;;;;;17.14;73.87;99524.94;4991526;28;20074;-61
2023/03/13 08:48:39;;;;;;;0.20;0.20;;;;;;;17.17;73.86;99491.78;4990604;28;20438;-61
2023/03/13 08:51:07;;;;;;;0.10;0.10;;;;;;;17.93;70.80;99510.06;4991009;28;20042;-62
2023/03/13 08:53:34;;;;;;;0.20;0.20;;;;;;;18.03;69.90;99514.44;4990760;28;20034;-61
2023/03/13 08:56:00;;;;;;;0.10;0.10;;;;;;;17.70;70.98;99475.78;4990403;28;20034;-61
2023/03/13 08:58:26;;;;;;;0.20;0.20;;;;;;;18.04;69.79;99499.75;4974771;28;20050;-61
2023/03/13 09:00:54;;;;;;;0.20;0.20;;;;;;;18.10;69.08;99498.53;4971394;28;20042;-62
2023/03/13 09:03:20;;;;;;;0.10;0.10;;;;;;;18.15;69.70;99477.47;4971225;28;20066;-60
2023/03/13 09:05:46;;;;;;;0.13;0.13;;;;;;;17.69;70.23;99497.84;4972814;28;20058;-60
2023/03/13 09:08:13;;;;;;;0.10;0.10;;;;;;;17.53;70.84;99495.41;4974821;28;20035;-60
2023/03/13 09:10:38;;;;;;;0.10;0.10;;;;;;;17.44;71.90;99524.38;4974518;28;20033;-60
2023/03/13 09:13:03;;;;;;;0.10;0.10;;;;;;;17.86;69.72;99528.69;4975009;28;20027;-61
2023/03/13 09:15:29;;;;;;;0.10;0.10;;;;;;;17.65;69.42;99508.47;4974999;28;20038;-61
2023/03/13 09:17:54;;;;;;;0.20;0.20;;;;;;;17.57;70.72;99498.34;4974504;28;20090;-61
2023/03/13 09:20:20;;;;;;;0.10;0.10;;;;;;;18.04;69.61;99489.66;4982357;28;20410;-62
2023/03/13 09:22:45;;;;;;;0.15;0.15;;;;;;;17.86;69.97;99477.06;4974268;28;20374;-61
2023/03/13 09:25:12;;;;;;;0.10;0.10;;;;;;;18.03;69.33;99537.00;4974703;28;20026;-63
2023/03/13 09:27:37;;;;;;;0.20;0.20;;;;;;;17.51;71.38;99488.69;4973998;28;20043;-60
2023/03/13 09:30:03;;;;;;;0.10;0.10;;;;;;;17.83;71.93;99512.19;4974509;28;20039;-62
2023/03/13 09:32:28;;;;;;;0.10;0.10;;;;;;;17.01;73.91;99484.22;4974342;28;20311;-62
2023/03/13 09:34:54;;;;;;;0.10;0.10;;;;;;;17.74;71.62;99498.53;4973795;28;20027;-59
2023/03/13 09:37:20;;;;;;;0.10;0.10;;;;;;;18.30;69.78;99493.41;4974551;28;20030;-64
2023/03/13 09:39:48;;;;;;;0.10;0.10;;;;;;;17.86;69.84;99485.22;4974025;28;20027;-61
2023/03/13 09:42:17;;;;;;;0.10;0.10;;;;;;;17.34;69.75;99500.13;4974048;28;20027;-60
2023/03/13 09:45:07;;;;;;;0.13;0.13;;;;;;;17.18;69.00;99482.53;4974120;28;20042;-60
2023/03/13 09:47:43;;;;;;;0.13;0.13;;;;;;;17.60;68.87;99478.72;4974118;28;20305;-61
2023/03/13 09:50:15;;;;;;;0.15;0.15;;;;;;;17.68;68.58;99463.59;4974136;28;20035;-61
2023/03/13 09:52:42;;;;;;;0.20;0.20;;;;;;;17.88;65.02;99457.72;4973912;28;20495;-62
2023/03/13 09:55:20;;;;;;;0.20;0.20;;;;;;;18.26;64.92;99442.66;4974840;28;20015;-60
2023/03/13 09:57:54;;;;;;;0.20;0.20;;;;;;;18.20;64.21;99425.66;4993101;28;20038;-61
2023/03/13 10:00:34;;;;;;;0.10;0.10;;;;;;;18.27;64.05;99445.09;4993031;28;20089;-60
2023/03/13 10:03:24;;;;;;;0.10;0.10;;;;;;;17.95;63.26;99475.22;4993043;28;20038;-61
2023/03/13 10:05:54;;;;;;;0.10;0.10;;;;;;;17.90;63.87;99437.28;4992912;28;20121;-60
2023/03/13 10:08:23;;;;;;;0.10;0.10;;;;;;;18.50;62.99;99420.59;4993016;28;20037;-60
2023/03/13 10:10:56;;;;;;;0.10;0.10;;;;;;;18.31;63.56;99421.59;4992871;28;20449;-59
2023/03/13 10:13:44;;;;;;;0.10;0.10;;;;;;;18.57;61.98;99413.63;4993240;28;20023;-61
2023/03/13 10:16:41;;;;;;;0.10;0.10;;;;;;;18.55;61.82;99407.69;4992908;28;20038;-61
2023/03/13 10:19:16;;;;;;;0.10;0.10;;;;;;;18.56;61.61;99422.91;4992208;28;20062;-60
2023/03/13 10:21:46;;;;;;;0.10;0.10;;;;;;;18.61;62.01;99400.19;4992748;28;20057;-63
2023/03/13 10:24:32;;;;;;;0.10;0.10;;;;;;;19.37;60.47;99404.31;4992746;28;20041;-61
2023/03/13 10:26:57;;;;;;;0.10;0.10;;;;;;;19.44;60.37;99396.50;4992568;28;20041;-61
2023/03/13 10:29:28;;;;;;;0.10;0.10;;;;;;;18.99;60.95;99410.28;4992494;28;20061;-61
2023/03/13 10:31:55;;;;;;;0.10;0.10;;;;;;;19.54;59.12;99396.16;4992465;28;20513;-62
2023/03/13 10:34:21;;;;;;;0.13;0.13;;;;;;;19.18;59.91;99429.88;4992714;28;20070;-61
2023/03/13 10:36:48;;;;;;;0.10;0.10;;;;;;;19.09;59.95;99376.50;4992403;28;20397;-60
2023/03/13 10:39:17;;;;;;;0.10;0.10;;;;;;;18.81;59.73;99391.50;4992960;28;20601;-60
2023/03/13 10:41:42;;;;;;;0.10;0.10;;;;;;;19.15;58.82;99391.59;4992599;28;20042;-62
2023/03/13 10:44:16;;;;;;;0.00;0.00;;;;;;;19.49;57.81;99369.09;4992667;28;20038;-60
2023/03/13 10:46:45;;;;;;;0.10;0.10;;;;;;;19.95;56.48;99374.72;4992602;28;20469;-61
2023/03/13 10:49:18;;;;;;;0.08;0.08;;;;;;;20.26;55.78;99358.97;4992354;28;20378;-59
2023/03/13 10:51:50;;;;;;;0.10;0.10;;;;;;;19.94;56.33;99360.28;4992145;28;20613;-61
2023/03/13 10:54:22;;;;;;;0.10;0.10;;;;;;;19.88;55.66;99363.47;4992235;28;20054;-62
2023/03/13 10:56:49;;;;;;;0.00;0.00;;;;;;;19.83;54.81;99424.41;4991901;28;20457;-61
2023/03/13 10:59:43;;;;;;;0.10;0.10;;;;;;;20.27;53.84;99384.31;4991800;28;20497;-61
2023/03/13 11:02:34;;;;;;;0.10;0.10;;;;;;;20.17;54.28;99353.50;4992089;28;20053;-60
2023/03/13 11:05:01;;;;;;;0.08;0.08;;;;;;;19.90;53.78;99377.59;4991744;28;20030;-60
2023/03/13 11:07:37;;;;;;;0.05;0.05;;;;;;;19.65;54.03;99342.97;4992007;28;20026;-61
2023/03/13 11:10:18;;;;;;;0.10;0.10;;;;;;;20.30;51.89;99409.03;4992667;28;20469;-65
2023/03/13 11:12:46;;;;;;;0.17;0.17;;;;;;;19.20;53.61;99369.66;4991687;28;20038;-61
2023/03/13 11:15:19;;;;;;;0.05;0.05;;;;;;;19.68;53.04;99392.19;4991621;28;20421;-61
2023/03/13 11:17:51;;;;;;;0.10;0.10;;;;;;;20.23;50.17;99326.06;4991653;28;20046;-61
2023/03/13 11:20:35;;;;;;;0.10;0.10;;;;;;;20.12;48.96;99369.22;4991912;28;20593;-62
2023/03/13 11:23:23;;;;;;;0.10;0.10;;;;;;;20.28;47.65;99331.34;4991556;28;20133;-61
2023/03/13 11:25:57;;;;;;;0.10;0.10;;;;;;;20.54;47.93;99348.44;4991639;28;20041;-63
2023/03/13 11:28:46;;;;;;;0.10;0.10;;;;;;;20.22;49.00;99376.31;4991416;28;20048;-62
2023/03/13 11:31:22;;;;;;;0.10;0.10;;;;;;;20.10;48.56;99339.56;4991884;28;20061;-62
2023/03/13 11:33:52;;;;;;;0.10;0.10;;;;;;;20.13;49.08;99349.00;4991212;28;20061;-60
2023/03/13 11:36:27;;;;;;;0.10;0.10;;;;;;;19.92;48.09;99373.44;4991770;28;20420;-61